sensor_id;sensor_type;location;lat;lon;timestamp;temperature;humidity
37788;DHT22;23627;53.302;-6.362;2022-12-29T00:02:14;7.10;99.90
37788;DHT22;23627;53.302;-6.362;2022-12-29T00:04:39;7.10;99.90
37788;DHT22;23627;53.302;-6.362;2022-12-29T00:07:05;7.10;99.90
37788;DHT22;23627;53.302;-6.362;2022-12-29T00:09:31;7.10;99.90
37788;DHT22;23627;53.302;-6.362;2022-12-29T00:11:57;7.10;99.90
37788;DHT22;23627;53.302;-6.362;2022-12-29T00:14:43;7.10;99.90
37788;DHT22;23627;53.302;-6.362;2022-12-29T00:17:47;7.00;99.90
37788;DHT22;23627;53.302;-6.362;2022-12-29T00:20:13;7.00;99.90
37788;DHT22;23627;53.302;-6.362;2022-12-29T00:22:57;7.00;99.90
37788;DHT22;23627;53.302;-6.362;2022-12-29T00:25:41;7.00;99.90
37788;DHT22;23627;53.302;-6.362;2022-12-29T00:28:25;7.00;99.90
37788;DHT22;23627;53.302;-6.362;2022-12-29T00:31:11;7.00;99.90
37788;DHT22;23627;53.302;-6.362;2022-12-29T00:33:55;7.00;99.90
37788;DHT22;23627;53.302;-6.362;2022-12-29T00:36:40;6.90;99.90
37788;DHT22;23627;53.302;-6.362;2022-12-29T00:39:16;6.90;99.90
37788;DHT22;23627;53.302;-6.362;2022-12-29T00:42:03;6.90;99.90
37788;DHT22;23627;53.302;-6.362;2022-12-29T00:44:47;6.90;99.90
37788;DHT22;23627;53.302;-6.362;2022-12-29T00:47:13;6.90;99.90
37788;DHT22;23627;53.302;-6.362;2022-12-29T00:49:39;6.90;99.90
37788;DHT22;23627;53.302;-6.362;2022-12-29T00:52:06;6.90;99.90
37788;DHT22;23627;53.302;-6.362;2022-12-29T00:54:33;6.90;99.90
37788;DHT22;23627;53.302;-6.362;2022-12-29T00:56:59;6.90;99.90
37788;DHT22;23627;53.302;-6.362;2022-12-29T00:59:24;6.90;99.90
37788;DHT22;23627;53.302;-6.362;2022-12-29T01:01:51;6.90;99.90
37788;DHT22;23627;53.302;-6.362;2022-12-29T01:04:17;6.80;99.90
37788;DHT22;23627;53.302;-6.362;2022-12-29T01:06:43;6.90;99.90
37788;DHT22;23627;53.302;-6.362;2022-12-29T01:09:10;6.80;99.90
37788;DHT22;23627;53.302;-6.362;2022-12-29T01:11:54;6.80;99.90
37788;DHT22;23627;53.302;-6.362;2022-12-29T01:14:20;6.80;99.90
37788;DHT22;23627;53.302;-6.362;2022-12-29T01:16:45;6.80;99.90
37788;DHT22;23627;53.302;-6.362;2022-12-29T01:19:12;6.80;99.90
37788;DHT22;23627;53.302;-6.362;2022-12-29T01:21:37;6.80;99.90
37788;DHT22;23627;53.302;-6.362;2022-12-29T01:24:03;6.80;99.90
37788;DHT22;23627;53.302;-6.362;2022-12-29T01:26:29;6.80;99.90
37788;DHT22;23627;53.302;-6.362;2022-12-29T01:28:54;6.80;99.90
37788;DHT22;23627;53.302;-6.362;2022-12-29T01:31:20;6.70;99.90
37788;DHT22;23627;53.302;-6.362;2022-12-29T01:33:46;6.70;99.90
37788;DHT22;23627;53.302;-6.362;2022-12-29T01:36:13;6.70;99.90
37788;DHT22;23627;53.302;-6.362;2022-12-29T01:38:39;6.70;99.90
37788;DHT22;23627;53.302;-6.362;2022-12-29T01:41:06;6.70;99.90
37788;DHT22;23627;53.302;-6.362;2022-12-29T01:43:48;6.70;99.90
37788;DHT22;23627;53.302;-6.362;2022-12-29T01:46:28;6.70;99.90
37788;DHT22;23627;53.302;-6.362;2022-12-29T01:48:57;6.70;99.90
37788;DHT22;23627;53.302;-6.362;2022-12-29T01:51:25;6.70;99.90
37788;DHT22;23627;53.302;-6.362;2022-12-29T01:53:51;6.70;99.90
37788;DHT22;23627;53.302;-6.362;2022-12-29T01:56:17;6.70;99.90
37788;DHT22;23627;53.302;-6.362;2022-12-29T01:58:45;6.60;99.90
37788;DHT22;23627;53.302;-6.362;2022-12-29T02:01:11;6.60;99.90
37788;DHT22;23627;53.302;-6.362;2022-12-29T02:03:37;6.60;99.90
37788;DHT22;23627;53.302;-6.362;2022-12-29T02:06:17;6.60;99.90
37788;DHT22;23627;53.302;-6.362;2022-12-29T02:08:44;6.60;99.90
37788;DHT22;23627;53.302;-6.362;2022-12-29T02:11:11;6.60;99.90
37788;DHT22;23627;53.302;-6.362;2022-12-29T02:13:37;6.60;99.90
37788;DHT22;23627;53.302;-6.362;2022-12-29T02:27:51;6.60;99.90
37788;DHT22;23627;53.302;-6.362;2022-12-29T02:42:12;6.50;99.90
37788;DHT22;23627;53.302;-6.362;2022-12-29T02:44:58;6.50;99.90
37788;DHT22;23627;53.302;-6.362;2022-12-29T02:47:41;6.50;99.90
37788;DHT22;23627;53.302;-6.362;2022-12-29T02:50:14;6.50;99.90
37788;DHT22;23627;53.302;-6.362;2022-12-29T02:52:43;6.50;99.90
37788;DHT22;23627;53.302;-6.362;2022-12-29T02:55:11;6.50;99.90
37788;DHT22;23627;53.302;-6.362;2022-12-29T02:57:37;6.50;99.90
37788;DHT22;23627;53.302;-6.362;2022-12-29T03:00:15;6.50;99.90
37788;DHT22;23627;53.302;-6.362;2022-12-29T03:12:54;6.50;99.90
37788;DHT22;23627;53.302;-6.362;2022-12-29T03:15:43;6.50;99.90
37788;DHT22;23627;53.302;-6.362;2022-12-29T03:18:31;6.50;99.90
37788;DHT22;23627;53.302;-6.362;2022-12-29T03:21:01;6.40;99.90
37788;DHT22;23627;53.302;-6.362;2022-12-29T03:23:27;6.40;99.90
37788;DHT22;23627;53.302;-6.362;2022-12-29T03:25:55;6.40;99.90
37788;DHT22;23627;53.302;-6.362;2022-12-29T03:28:26;6.50;99.90
37788;DHT22;23627;53.302;-6.362;2022-12-29T03:30:52;6.40;99.90
37788;DHT22;23627;53.302;-6.362;2022-12-29T03:33:20;6.40;99.90
37788;DHT22;23627;53.302;-6.362;2022-12-29T03:35:46;6.40;99.90
37788;DHT22;23627;53.302;-6.362;2022-12-29T03:40:40;6.40;99.90
37788;DHT22;23627;53.302;-6.362;2022-12-29T03:43:07;6.40;99.90
37788;DHT22;23627;53.302;-6.362;2022-12-29T03:45:32;6.40;99.90
37788;DHT22;23627;53.302;-6.362;2022-12-29T03:47:58;6.40;99.90
37788;DHT22;23627;53.302;-6.362;2022-12-29T03:50:23;6.40;99.90
37788;DHT22;23627;53.302;-6.362;2022-12-29T03:52:49;6.40;99.90
37788;DHT22;23627;53.302;-6.362;2022-12-29T03:55:15;6.40;99.90
37788;DHT22;23627;53.302;-6.362;2022-12-29T03:57:40;6.40;99.90
37788;DHT22;23627;53.302;-6.362;2022-12-29T04:00:06;6.40;99.90
37788;DHT22;23627;53.302;-6.362;2022-12-29T04:02:32;6.40;99.90
37788;DHT22;23627;53.302;-6.362;2022-12-29T04:04:57;6.40;99.90
37788;DHT22;23627;53.302;-6.362;2022-12-29T04:07:23;6.40;99.90
37788;DHT22;23627;53.302;-6.362;2022-12-29T04:09:49;6.40;99.90
37788;DHT22;23627;53.302;-6.362;2022-12-29T04:12:14;6.30;99.90
37788;DHT22;23627;53.302;-6.362;2022-12-29T04:14:40;6.30;99.90
37788;DHT22;23627;53.302;-6.362;2022-12-29T04:17:06;6.30;99.90
37788;DHT22;23627;53.302;-6.362;2022-12-29T04:19:32;6.30;99.90
37788;DHT22;23627;53.302;-6.362;2022-12-29T04:21:57;6.30;99.90
37788;DHT22;23627;53.302;-6.362;2022-12-29T04:24:23;6.30;99.90
37788;DHT22;23627;53.302;-6.362;2022-12-29T04:26:49;6.30;99.90
37788;DHT22;23627;53.302;-6.362;2022-12-29T04:29:14;6.30;99.90
37788;DHT22;23627;53.302;-6.362;2022-12-29T04:31:40;6.30;99.90
37788;DHT22;23627;53.302;-6.362;2022-12-29T04:34:06;6.30;99.90
37788;DHT22;23627;53.302;-6.362;2022-12-29T04:36:31;6.30;99.90
37788;DHT22;23627;53.302;-6.362;2022-12-29T04:38:57;6.30;99.90
37788;DHT22;23627;53.302;-6.362;2022-12-29T04:41:23;6.30;99.90
37788;DHT22;23627;53.302;-6.362;2022-12-29T04:43:49;6.30;99.90
37788;DHT22;23627;53.302;-6.362;2022-12-29T04:46:14;6.30;99.90
37788;DHT22;23627;53.302;-6.362;2022-12-29T04:48:40;6.30;99.90
37788;DHT22;23627;53.302;-6.362;2022-12-29T04:51:05;6.20;99.90
37788;DHT22;23627;53.302;-6.362;2022-12-29T04:53:31;6.20;99.90
37788;DHT22;23627;53.302;-6.362;2022-12-29T04:55:56;6.20;99.90
37788;DHT22;23627;53.302;-6.362;2022-12-29T04:58:22;6.20;99.90
37788;DHT22;23627;53.302;-6.362;2022-12-29T05:00:47;6.20;99.90
37788;DHT22;23627;53.302;-6.362;2022-12-29T05:03:13;6.20;99.90
37788;DHT22;23627;53.302;-6.362;2022-12-29T05:05:39;6.20;99.90
37788;DHT22;23627;53.302;-6.362;2022-12-29T05:08:04;6.20;99.90
37788;DHT22;23627;53.302;-6.362;2022-12-29T05:10:30;6.20;99.90
37788;DHT22;23627;53.302;-6.362;2022-12-29T05:12:56;6.20;99.90
37788;DHT22;23627;53.302;-6.362;2022-12-29T05:15:22;6.20;99.90
37788;DHT22;23627;53.302;-6.362;2022-12-29T05:17:48;6.20;99.90
37788;DHT22;23627;53.302;-6.362;2022-12-29T05:20:14;6.20;99.90
37788;DHT22;23627;53.302;-6.362;2022-12-29T05:22:39;6.20;99.90
37788;DHT22;23627;53.302;-6.362;2022-12-29T05:25:05;6.10;99.90
37788;DHT22;23627;53.302;-6.362;2022-12-29T05:27:31;6.20;99.90
37788;DHT22;23627;53.302;-6.362;2022-12-29T05:29:56;6.10;99.90
37788;DHT22;23627;53.302;-6.362;2022-12-29T05:32:22;6.10;99.90
37788;DHT22;23627;53.302;-6.362;2022-12-29T05:34:48;6.10;99.90
37788;DHT22;23627;53.302;-6.362;2022-12-29T05:37:13;6.10;99.90
37788;DHT22;23627;53.302;-6.362;2022-12-29T05:39:39;6.10;99.90
37788;DHT22;23627;53.302;-6.362;2022-12-29T05:42:04;6.10;99.90
37788;DHT22;23627;53.302;-6.362;2022-12-29T05:44:30;6.10;99.90
37788;DHT22;23627;53.302;-6.362;2022-12-29T05:46:55;6.00;99.90
37788;DHT22;23627;53.302;-6.362;2022-12-29T05:49:21;6.00;99.90
37788;DHT22;23627;53.302;-6.362;2022-12-29T05:51:47;6.00;99.90
37788;DHT22;23627;53.302;-6.362;2022-12-29T05:54:12;6.00;99.90
37788;DHT22;23627;53.302;-6.362;2022-12-29T05:56:38;6.00;99.90
37788;DHT22;23627;53.302;-6.362;2022-12-29T05:59:03;6.00;99.90
37788;DHT22;23627;53.302;-6.362;2022-12-29T06:01:29;6.00;99.90
37788;DHT22;23627;53.302;-6.362;2022-12-29T06:03:54;6.00;99.90
37788;DHT22;23627;53.302;-6.362;2022-12-29T06:06:20;6.00;99.90
37788;DHT22;23627;53.302;-6.362;2022-12-29T06:08:46;6.00;99.90
37788;DHT22;23627;53.302;-6.362;2022-12-29T06:11:11;6.00;99.90
37788;DHT22;23627;53.302;-6.362;2022-12-29T06:13:37;6.00;99.90
37788;DHT22;23627;53.302;-6.362;2022-12-29T06:16:03;6.00;99.90
37788;DHT22;23627;53.302;-6.362;2022-12-29T06:18:28;6.00;99.90
37788;DHT22;23627;53.302;-6.362;2022-12-29T06:20:54;6.00;99.90
37788;DHT22;23627;53.302;-6.362;2022-12-29T06:23:19;6.00;99.90
37788;DHT22;23627;53.302;-6.362;2022-12-29T06:25:46;6.00;99.90
37788;DHT22;23627;53.302;-6.362;2022-12-29T06:28:12;6.00;99.90
37788;DHT22;23627;53.302;-6.362;2022-12-29T06:30:37;6.00;99.90
37788;DHT22;23627;53.302;-6.362;2022-12-29T06:33:03;6.00;99.90
37788;DHT22;23627;53.302;-6.362;2022-12-29T06:35:29;6.00;99.90
37788;DHT22;23627;53.302;-6.362;2022-12-29T06:37:55;6.00;99.90
37788;DHT22;23627;53.302;-6.362;2022-12-29T06:40:20;6.00;99.90
37788;DHT22;23627;53.302;-6.362;2022-12-29T06:42:47;6.00;99.90
37788;DHT22;23627;53.302;-6.362;2022-12-29T06:45:12;6.00;99.90
37788;DHT22;23627;53.302;-6.362;2022-12-29T06:47:38;6.10;99.90
37788;DHT22;23627;53.302;-6.362;2022-12-29T06:50:03;6.10;99.90
37788;DHT22;23627;53.302;-6.362;2022-12-29T06:52:29;6.00;99.90
37788;DHT22;23627;53.302;-6.362;2022-12-29T06:54:54;6.10;99.90
37788;DHT22;23627;53.302;-6.362;2022-12-29T06:57:20;6.10;99.90
37788;DHT22;23627;53.302;-6.362;2022-12-29T06:59:46;6.10;99.90
37788;DHT22;23627;53.302;-6.362;2022-12-29T07:02:12;6.00;99.90
37788;DHT22;23627;53.302;-6.362;2022-12-29T07:04:39;6.10;99.90
37788;DHT22;23627;53.302;-6.362;2022-12-29T07:07:05;6.10;99.90
37788;DHT22;23627;53.302;-6.362;2022-12-29T07:09:30;6.10;99.90
37788;DHT22;23627;53.302;-6.362;2022-12-29T07:11:56;6.10;99.90
37788;DHT22;23627;53.302;-6.362;2022-12-29T07:14:21;6.10;99.90
37788;DHT22;23627;53.302;-6.362;2022-12-29T07:16:47;6.10;99.90
37788;DHT22;23627;53.302;-6.362;2022-12-29T07:19:12;6.10;99.90
37788;DHT22;23627;53.302;-6.362;2022-12-29T07:21:38;6.10;99.90
37788;DHT22;23627;53.302;-6.362;2022-12-29T07:24:03;6.10;99.90
37788;DHT22;23627;53.302;-6.362;2022-12-29T07:26:29;6.00;99.90
37788;DHT22;23627;53.302;-6.362;2022-12-29T07:28:55;6.00;99.90
37788;DHT22;23627;53.302;-6.362;2022-12-29T07:31:21;6.00;99.90
37788;DHT22;23627;53.302;-6.362;2022-12-29T07:33:47;6.10;99.90
37788;DHT22;23627;53.302;-6.362;2022-12-29T07:36:13;6.00;99.90
37788;DHT22;23627;53.302;-6.362;2022-12-29T07:38:39;6.10;99.90
37788;DHT22;23627;53.302;-6.362;2022-12-29T07:41:04;6.00;99.90
37788;DHT22;23627;53.302;-6.362;2022-12-29T07:43:30;6.10;99.90
37788;DHT22;23627;53.302;-6.362;2022-12-29T07:45:56;6.00;99.90
37788;DHT22;23627;53.302;-6.362;2022-12-29T07:48:21;6.00;99.90
37788;DHT22;23627;53.302;-6.362;2022-12-29T07:50:47;6.00;99.90
37788;DHT22;23627;53.302;-6.362;2022-12-29T07:53:12;6.00;99.90
37788;DHT22;23627;53.302;-6.362;2022-12-29T07:55:38;6.00;99.90
37788;DHT22;23627;53.302;-6.362;2022-12-29T07:58:04;6.00;99.90
37788;DHT22;23627;53.302;-6.362;2022-12-29T08:00:29;6.00;99.90
37788;DHT22;23627;53.302;-6.362;2022-12-29T08:02:55;6.00;99.90
37788;DHT22;23627;53.302;-6.362;2022-12-29T08:05:21;6.00;99.90
37788;DHT22;23627;53.302;-6.362;2022-12-29T08:07:46;6.00;99.90
37788;DHT22;23627;53.302;-6.362;2022-12-29T08:10:12;6.00;99.90
37788;DHT22;23627;53.302;-6.362;2022-12-29T08:12:38;6.00;99.90
37788;DHT22;23627;53.302;-6.362;2022-12-29T08:15:04;6.00;99.90
37788;DHT22;23627;53.302;-6.362;2022-12-29T08:17:30;6.00;99.90
37788;DHT22;23627;53.302;-6.362;2022-12-29T08:19:56;6.00;99.90
37788;DHT22;23627;53.302;-6.362;2022-12-29T08:22:22;6.00;99.90
37788;DHT22;23627;53.302;-6.362;2022-12-29T08:24:47;6.00;99.90
37788;DHT22;23627;53.302;-6.362;2022-12-29T08:27:13;6.00;99.90
37788;DHT22;23627;53.302;-6.362;2022-12-29T08:29:38;6.00;99.90
37788;DHT22;23627;53.302;-6.362;2022-12-29T08:32:04;6.00;99.90
37788;DHT22;23627;53.302;-6.362;2022-12-29T08:34:30;6.00;99.90
37788;DHT22;23627;53.302;-6.362;2022-12-29T08:36:56;6.00;99.90
37788;DHT22;23627;53.302;-6.362;2022-12-29T08:39:21;5.90;99.90
37788;DHT22;23627;53.302;-6.362;2022-12-29T08:41:47;6.00;99.90
37788;DHT22;23627;53.302;-6.362;2022-12-29T08:44:13;6.00;99.90
37788;DHT22;23627;53.302;-6.362;2022-12-29T08:46:38;6.00;99.90
37788;DHT22;23627;53.302;-6.362;2022-12-29T08:49:04;5.90;99.90
37788;DHT22;23627;53.302;-6.362;2022-12-29T08:51:29;5.90;99.90
37788;DHT22;23627;53.302;-6.362;2022-12-29T08:53:55;5.90;99.90
37788;DHT22;23627;53.302;-6.362;2022-12-29T08:56:21;5.90;99.90
37788;DHT22;23627;53.302;-6.362;2022-12-29T08:58:47;5.90;99.90
37788;DHT22;23627;53.302;-6.362;2022-12-29T09:01:13;5.90;99.90
37788;DHT22;23627;53.302;-6.362;2022-12-29T09:03:38;5.90;99.90
37788;DHT22;23627;53.302;-6.362;2022-12-29T09:06:04;5.90;99.90
37788;DHT22;23627;53.302;-6.362;2022-12-29T09:08:30;5.90;99.90
37788;DHT22;23627;53.302;-6.362;2022-12-29T09:10:55;5.80;99.90
37788;DHT22;23627;53.302;-6.362;2022-12-29T09:13:30;5.90;99.90
37788;DHT22;23627;53.302;-6.362;2022-12-29T09:15:58;5.90;99.90
37788;DHT22;23627;53.302;-6.362;2022-12-29T09:18:24;5.90;99.90
37788;DHT22;23627;53.302;-6.362;2022-12-29T09:20:55;5.80;99.90
37788;DHT22;23627;53.302;-6.362;2022-12-29T09:23:20;5.80;99.90
37788;DHT22;23627;53.302;-6.362;2022-12-29T09:25:47;5.80;99.90
37788;DHT22;23627;53.302;-6.362;2022-12-29T09:28:12;5.80;99.90
37788;DHT22;23627;53.302;-6.362;2022-12-29T09:30:38;5.80;99.90
37788;DHT22;23627;53.302;-6.362;2022-12-29T09:33:04;5.80;99.90
37788;DHT22;23627;53.302;-6.362;2022-12-29T09:35:30;5.80;99.90
37788;DHT22;23627;53.302;-6.362;2022-12-29T09:37:55;5.80;99.90
37788;DHT22;23627;53.302;-6.362;2022-12-29T09:40:31;5.80;99.90
37788;DHT22;23627;53.302;-6.362;2022-12-29T09:45:30;5.80;99.90
37788;DHT22;23627;53.302;-6.362;2022-12-29T09:48:00;5.90;99.90
37788;DHT22;23627;53.302;-6.362;2022-12-29T09:50:34;5.90;99.90
37788;DHT22;23627;53.302;-6.362;2022-12-29T09:56:10;5.80;99.90
37788;DHT22;23627;53.302;-6.362;2022-12-29T09:58:21;5.90;99.90
37788;DHT22;23627;53.302;-6.362;2022-12-29T10:01:04;5.90;99.90
37788;DHT22;23627;53.302;-6.362;2022-12-29T10:03:52;5.90;99.90
37788;DHT22;23627;53.302;-6.362;2022-12-29T10:06:27;5.90;99.90
37788;DHT22;23627;53.302;-6.362;2022-12-29T10:11:49;6.10;99.90
37788;DHT22;23627;53.302;-6.362;2022-12-29T10:17:58;6.10;99.90
37788;DHT22;23627;53.302;-6.362;2022-12-29T10:22:47;6.10;99.90
37788;DHT22;23627;53.302;-6.362;2022-12-29T10:25:26;6.10;99.90
37788;DHT22;23627;53.302;-6.362;2022-12-29T10:27:58;6.20;99.90
37788;DHT22;23627;53.302;-6.362;2022-12-29T10:30:24;6.20;99.90
37788;DHT22;23627;53.302;-6.362;2022-12-29T10:32:58;6.20;99.90
37788;DHT22;23627;53.302;-6.362;2022-12-29T10:35:37;6.20;99.90
37788;DHT22;23627;53.302;-6.362;2022-12-29T10:38:28;6.30;99.90
37788;DHT22;23627;53.302;-6.362;2022-12-29T10:41:05;6.30;99.90
37788;DHT22;23627;53.302;-6.362;2022-12-29T10:43:51;6.30;99.90
37788;DHT22;23627;53.302;-6.362;2022-12-29T10:46:21;6.30;99.90
37788;DHT22;23627;53.302;-6.362;2022-12-29T10:48:49;6.30;99.90
37788;DHT22;23627;53.302;-6.362;2022-12-29T10:51:18;6.30;99.90
37788;DHT22;23627;53.302;-6.362;2022-12-29T10:53:47;6.30;99.90
37788;DHT22;23627;53.302;-6.362;2022-12-29T10:56:22;6.30;99.90
37788;DHT22;23627;53.302;-6.362;2022-12-29T10:58:51;6.30;99.90
37788;DHT22;23627;53.302;-6.362;2022-12-29T11:01:19;6.20;99.90
37788;DHT22;23627;53.302;-6.362;2022-12-29T11:03:48;6.20;99.90
37788;DHT22;23627;53.302;-6.362;2022-12-29T11:06:21;6.30;99.90
37788;DHT22;23627;53.302;-6.362;2022-12-29T11:09:00;6.30;99.90
37788;DHT22;23627;53.302;-6.362;2022-12-29T11:11:28;6.30;99.90
37788;DHT22;23627;53.302;-6.362;2022-12-29T11:13:58;6.40;99.90
37788;DHT22;23627;53.302;-6.362;2022-12-29T11:16:28;6.40;99.90
37788;DHT22;23627;53.302;-6.362;2022-12-29T11:18:56;6.50;99.90
37788;DHT22;23627;53.302;-6.362;2022-12-29T11:21:35;6.50;99.90
37788;DHT22;23627;53.302;-6.362;2022-12-29T11:26:44;6.50;99.90
37788;DHT22;23627;53.302;-6.362;2022-12-29T11:34:20;6.40;99.90
37788;DHT22;23627;53.302;-6.362;2022-12-29T11:36:46;6.40;99.90
37788;DHT22;23627;53.302;-6.362;2022-12-29T11:39:34;6.40;99.90
37788;DHT22;23627;53.302;-6.362;2022-12-29T11:42:02;6.40;99.90
37788;DHT22;23627;53.302;-6.362;2022-12-29T11:44:30;6.50;99.90
37788;DHT22;23627;53.302;-6.362;2022-12-29T11:46:58;6.50;99.90
37788;DHT22;23627;53.302;-6.362;2022-12-29T11:49:24;6.60;99.90
37788;DHT22;23627;53.302;-6.362;2022-12-29T11:51:52;6.60;99.90
37788;DHT22;23627;53.302;-6.362;2022-12-29T11:54:25;6.60;99.90
37788;DHT22;23627;53.302;-6.362;2022-12-29T11:56:53;6.70;99.90
37788;DHT22;23627;53.302;-6.362;2022-12-29T12:02:15;6.70;99.90
37788;DHT22;23627;53.302;-6.362;2022-12-29T12:04:43;6.70;99.90
37788;DHT22;23627;53.302;-6.362;2022-12-29T12:10:00;6.80;99.90
37788;DHT22;23627;53.302;-6.362;2022-12-29T12:12:29;6.80;99.90
37788;DHT22;23627;53.302;-6.362;2022-12-29T12:14:56;6.80;99.90
37788;DHT22;23627;53.302;-6.362;2022-12-29T12:17:26;6.80;99.90
37788;DHT22;23627;53.302;-6.362;2022-12-29T12:22:43;6.90;99.90
37788;DHT22;23627;53.302;-6.362;2022-12-29T12:25:14;6.90;99.90
37788;DHT22;23627;53.302;-6.362;2022-12-29T12:27:44;6.90;99.90
37788;DHT22;23627;53.302;-6.362;2022-12-29T12:30:20;7.00;99.90
37788;DHT22;23627;53.302;-6.362;2022-12-29T12:32:51;7.00;99.90
37788;DHT22;23627;53.302;-6.362;2022-12-29T12:43:14;7.10;99.90
37788;DHT22;23627;53.302;-6.362;2022-12-29T12:51:33;7.30;99.90
37788;DHT22;23627;53.302;-6.362;2022-12-29T12:53:46;7.40;99.90
37788;DHT22;23627;53.302;-6.362;2022-12-29T12:59:05;7.40;99.90
37788;DHT22;23627;53.302;-6.362;2022-12-29T13:04:19;7.20;99.90
37788;DHT22;23627;53.302;-6.362;2022-12-29T13:12:45;6.90;99.90
37788;DHT22;23627;53.302;-6.362;2022-12-29T13:20:58;6.80;99.90
37788;DHT22;23627;53.302;-6.362;2022-12-29T13:23:18;6.80;99.90
37788;DHT22;23627;53.302;-6.362;2022-12-29T13:25:59;6.80;99.90
37788;DHT22;23627;53.302;-6.362;2022-12-29T13:28:31;6.80;99.90
37788;DHT22;23627;53.302;-6.362;2022-12-29T13:36:02;6.70;99.90
37788;DHT22;23627;53.302;-6.362;2022-12-29T13:38:34;6.60;99.90
37788;DHT22;23627;53.302;-6.362;2022-12-29T13:41:04;6.60;99.90
37788;DHT22;23627;53.302;-6.362;2022-12-29T13:43:32;6.60;99.90
37788;DHT22;23627;53.302;-6.362;2022-12-29T13:46:02;6.60;99.90
37788;DHT22;23627;53.302;-6.362;2022-12-29T13:48:35;6.60;99.90
37788;DHT22;23627;53.302;-6.362;2022-12-29T13:51:02;6.60;99.90
37788;DHT22;23627;53.302;-6.362;2022-12-29T14:04:26;6.50;99.90
37788;DHT22;23627;53.302;-6.362;2022-12-29T14:07:05;6.60;99.90
37788;DHT22;23627;53.302;-6.362;2022-12-29T14:11:56;6.60;99.90
37788;DHT22;23627;53.302;-6.362;2022-12-29T14:14:23;6.50;99.90
37788;DHT22;23627;53.302;-6.362;2022-12-29T14:16:50;6.50;99.90
37788;DHT22;23627;53.302;-6.362;2022-12-29T14:19:16;6.50;99.90
37788;DHT22;23627;53.302;-6.362;2022-12-29T14:21:53;6.50;99.90
37788;DHT22;23627;53.302;-6.362;2022-12-29T14:24:27;6.40;99.90
37788;DHT22;23627;53.302;-6.362;2022-12-29T14:26:53;6.30;99.90
37788;DHT22;23627;53.302;-6.362;2022-12-29T14:31:47;6.30;99.90
37788;DHT22;23627;53.302;-6.362;2022-12-29T14:50:57;6.20;99.90
37788;DHT22;23627;53.302;-6.362;2022-12-29T14:52:53;6.20;99.90
37788;DHT22;23627;53.302;-6.362;2022-12-29T14:55:36;6.20;99.90
37788;DHT22;23627;53.302;-6.362;2022-12-29T14:58:04;6.20;99.90
37788;DHT22;23627;53.302;-6.362;2022-12-29T15:00:31;6.20;99.90
37788;DHT22;23627;53.302;-6.362;2022-12-29T15:03:05;6.20;99.90
37788;DHT22;23627;53.302;-6.362;2022-12-29T15:05:41;6.10;99.90
37788;DHT22;23627;53.302;-6.362;2022-12-29T15:08:07;6.10;99.90
37788;DHT22;23627;53.302;-6.362;2022-12-29T15:10:39;6.10;99.90
37788;DHT22;23627;53.302;-6.362;2022-12-29T15:13:13;6.10;99.90
37788;DHT22;23627;53.302;-6.362;2022-12-29T15:15:40;6.10;99.90
37788;DHT22;23627;53.302;-6.362;2022-12-29T15:18:21;6.10;99.90
37788;DHT22;23627;53.302;-6.362;2022-12-29T15:20:49;6.10;99.90
37788;DHT22;23627;53.302;-6.362;2022-12-29T15:23:16;6.00;99.90
37788;DHT22;23627;53.302;-6.362;2022-12-29T15:28:46;6.00;99.90
37788;DHT22;23627;53.302;-6.362;2022-12-29T15:31:16;6.00;99.90
37788;DHT22;23627;53.302;-6.362;2022-12-29T15:33:44;6.00;99.90
37788;DHT22;23627;53.302;-6.362;2022-12-29T15:36:12;5.90;99.90
37788;DHT22;23627;53.302;-6.362;2022-12-29T15:38:39;5.90;99.90
37788;DHT22;23627;53.302;-6.362;2022-12-29T15:44:29;5.80;99.90
37788;DHT22;23627;53.302;-6.362;2022-12-29T15:46:57;5.90;99.90
37788;DHT22;23627;53.302;-6.362;2022-12-29T15:49:22;5.80;99.90
37788;DHT22;23627;53.302;-6.362;2022-12-29T15:51:49;5.80;99.90
37788;DHT22;23627;53.302;-6.362;2022-12-29T15:54:19;5.80;99.90
37788;DHT22;23627;53.302;-6.362;2022-12-29T15:56:45;5.70;99.90
37788;DHT22;23627;53.302;-6.362;2022-12-29T15:59:22;5.80;99.90
37788;DHT22;23627;53.302;-6.362;2022-12-29T16:01:48;5.70;99.90
37788;DHT22;23627;53.302;-6.362;2022-12-29T16:04:13;5.70;99.90
37788;DHT22;23627;53.302;-6.362;2022-12-29T16:06:44;5.70;99.90
37788;DHT22;23627;53.302;-6.362;2022-12-29T16:09:18;5.70;99.90
37788;DHT22;23627;53.302;-6.362;2022-12-29T16:11:49;5.60;99.90
37788;DHT22;23627;53.302;-6.362;2022-12-29T16:14:17;5.60;99.90
37788;DHT22;23627;53.302;-6.362;2022-12-29T16:16:43;5.60;99.90
37788;DHT22;23627;53.302;-6.362;2022-12-29T16:19:12;5.60;99.90
37788;DHT22;23627;53.302;-6.362;2022-12-29T16:21:38;5.50;99.90
37788;DHT22;23627;53.302;-6.362;2022-12-29T16:24:08;5.50;99.90
37788;DHT22;23627;53.302;-6.362;2022-12-29T16:26:37;5.50;99.90
37788;DHT22;23627;53.302;-6.362;2022-12-29T16:29:05;5.50;99.90
37788;DHT22;23627;53.302;-6.362;2022-12-29T16:31:48;5.50;99.90
37788;DHT22;23627;53.302;-6.362;2022-12-29T16:34:25;5.50;99.90
37788;DHT22;23627;53.302;-6.362;2022-12-29T16:39:21;5.40;99.90
37788;DHT22;23627;53.302;-6.362;2022-12-29T16:41:49;5.40;99.90
37788;DHT22;23627;53.302;-6.362;2022-12-29T16:44:16;5.40;99.90
37788;DHT22;23627;53.302;-6.362;2022-12-29T16:46:56;5.40;99.90
37788;DHT22;23627;53.302;-6.362;2022-12-29T16:49:23;5.40;99.90
37788;DHT22;23627;53.302;-6.362;2022-12-29T16:51:49;5.40;99.90
37788;DHT22;23627;53.302;-6.362;2022-12-29T16:54:20;5.40;99.90
37788;DHT22;23627;53.302;-6.362;2022-12-29T16:56:46;5.40;99.90
37788;DHT22;23627;53.302;-6.362;2022-12-29T17:01:57;5.40;99.90
37788;DHT22;23627;53.302;-6.362;2022-12-29T17:04:22;5.40;99.90
37788;DHT22;23627;53.302;-6.362;2022-12-29T17:06:48;5.40;99.90
37788;DHT22;23627;53.302;-6.362;2022-12-29T17:09:17;5.30;99.90
37788;DHT22;23627;53.302;-6.362;2022-12-29T17:11:45;5.30;99.90
37788;DHT22;23627;53.302;-6.362;2022-12-29T17:24:48;5.30;99.90
37788;DHT22;23627;53.302;-6.362;2022-12-29T17:27:36;5.30;99.90
37788;DHT22;23627;53.302;-6.362;2022-12-29T17:30:01;5.30;99.90
37788;DHT22;23627;53.302;-6.362;2022-12-29T17:32:27;5.20;99.90
37788;DHT22;23627;53.302;-6.362;2022-12-29T17:34:53;5.20;99.90
37788;DHT22;23627;53.302;-6.362;2022-12-29T17:39:53;5.20;99.90
37788;DHT22;23627;53.302;-6.362;2022-12-29T17:42:19;5.20;99.90
37788;DHT22;23627;53.302;-6.362;2022-12-29T17:44:45;5.20;99.90
37788;DHT22;23627;53.302;-6.362;2022-12-29T17:47:12;5.20;99.90
37788;DHT22;23627;53.302;-6.362;2022-12-29T17:49:40;5.20;99.90
37788;DHT22;23627;53.302;-6.362;2022-12-29T17:52:13;5.20;99.90
37788;DHT22;23627;53.302;-6.362;2022-12-29T17:54:41;5.20;99.90
37788;DHT22;23627;53.302;-6.362;2022-12-29T17:57:10;5.20;99.90
37788;DHT22;23627;53.302;-6.362;2022-12-29T17:59:36;5.10;99.90
37788;DHT22;23627;53.302;-6.362;2022-12-29T18:02:02;5.20;99.90
37788;DHT22;23627;53.302;-6.362;2022-12-29T18:04:28;5.10;99.90
37788;DHT22;23627;53.302;-6.362;2022-12-29T18:06:53;5.20;99.90
37788;DHT22;23627;53.302;-6.362;2022-12-29T18:09:19;5.10;99.90
37788;DHT22;23627;53.302;-6.362;2022-12-29T18:11:46;5.10;99.90
37788;DHT22;23627;53.302;-6.362;2022-12-29T18:14:15;5.10;99.90
37788;DHT22;23627;53.302;-6.362;2022-12-29T18:16:41;5.10;99.90
37788;DHT22;23627;53.302;-6.362;2022-12-29T18:19:07;5.10;99.90